createdAt,value
2018-07-25T00:01:36.686Z,10.70
2018-07-25T00:04:07.394Z,11.17
2018-07-25T00:06:37.735Z,11.87
2018-07-25T00:09:10.073Z,11.50
2018-07-25T00:11:40.681Z,11.33
2018-07-25T00:14:11.458Z,12.53
2018-07-25T00:16:41.999Z,12.97
2018-07-25T00:19:12.489Z,13.73
2018-07-25T00:21:43.027Z,12.40
2018-07-25T00:24:13.514Z,11.20
2018-07-25T00:26:43.804Z,8.60
2018-07-25T00:29:15.006Z,10.40
2018-07-25T00:31:45.676Z,9.93
2018-07-25T00:34:16.242Z,9.97
2018-07-25T00:36:46.937Z,10.43
2018-07-25T00:39:17.389Z,10.03
2018-07-25T00:41:47.816Z,10.60
2018-07-25T00:44:18.322Z,11.93
2018-07-25T00:46:48.676Z,10.80
2018-07-25T00:49:19.357Z,12.03
2018-07-25T00:51:49.776Z,12.13
2018-07-25T00:54:21.039Z,12.50
2018-07-25T00:56:51.504Z,15.50
2018-07-25T00:59:22.135Z,11.77
2018-07-25T01:01:54.771Z,12.60
2018-07-25T01:04:25.293Z,11.40
2018-07-25T01:06:55.690Z,11.67
2018-07-25T01:09:26.147Z,10.87
2018-07-25T01:11:56.492Z,10.40
2018-07-25T01:14:27.138Z,10.67
2018-07-25T01:16:57.628Z,11.50
2018-07-25T01:19:27.938Z,9.23
2018-07-25T01:21:58.743Z,10.50
2018-07-25T01:24:29.274Z,9.53
2018-07-25T01:26:59.563Z,8.97
2018-07-25T01:29:30.100Z,10.00
2018-07-25T01:32:00.635Z,8.57
2018-07-25T01:34:30.916Z,8.60
2018-07-25T01:37:01.576Z,8.90
2018-07-25T01:39:31.960Z,8.43
2018-07-25T01:42:02.474Z,8.27
2018-07-25T01:44:32.980Z,7.60
2018-07-25T01:47:03.475Z,8.33
2018-07-25T01:49:34.001Z,7.93
2018-07-25T01:52:04.569Z,7.60
2018-07-25T01:54:34.964Z,7.93
2018-07-25T01:57:05.619Z,7.50
2018-07-25T01:59:36.010Z,9.60
2018-07-25T02:02:17.681Z,7.57
2018-07-25T02:04:48.233Z,9.10
2018-07-25T02:07:18.605Z,8.00
2018-07-25T02:09:49.010Z,7.97
2018-07-25T02:12:19.338Z,7.27
2018-07-25T02:14:49.766Z,7.27
2018-07-25T02:17:20.134Z,6.77
2018-07-25T02:19:50.622Z,7.07
2018-07-25T02:22:21.111Z,8.13
2018-07-25T02:24:51.580Z,8.03
2018-07-25T02:27:22.124Z,8.00
2018-07-25T02:29:52.605Z,7.77
2018-07-25T02:32:23.181Z,7.13
2018-07-25T02:34:53.708Z,7.93
2018-07-25T02:37:24.137Z,8.37
2018-07-25T02:39:55.172Z,8.23
2018-07-25T02:42:25.930Z,8.00
2018-07-25T02:44:56.426Z,8.70
2018-07-25T02:47:26.805Z,9.00
2018-07-25T02:49:57.421Z,8.57
2018-07-25T02:52:27.868Z,7.77
2018-07-25T02:54:58.655Z,7.83
2018-07-25T02:57:29.029Z,7.93
2018-07-25T02:59:59.621Z,7.90
2018-07-25T03:02:30.195Z,7.67
2018-07-25T03:05:00.761Z,7.67
2018-07-25T03:07:31.290Z,7.87
2018-07-25T03:10:02.326Z,7.67
2018-07-25T03:12:32.700Z,7.13
2018-07-25T03:15:03.216Z,8.37
2018-07-25T03:17:33.784Z,6.17
2018-07-25T03:20:04.295Z,7.20
2018-07-25T03:22:35.003Z,7.13
2018-07-25T03:25:05.970Z,7.60
2018-07-25T03:27:36.538Z,9.00
2018-07-25T03:30:07.438Z,9.37
2018-07-25T03:32:37.970Z,6.07
2018-07-25T03:35:08.715Z,7.83
2018-07-25T03:37:39.461Z,6.97
2018-07-25T03:40:10.144Z,7.40
2018-07-25T03:42:40.597Z,7.50
2018-07-25T03:45:13.877Z,7.47
2018-07-25T03:47:44.428Z,6.77
2018-07-25T03:50:14.922Z,7.20
2018-07-25T03:52:45.500Z,9.67
2018-07-25T03:55:15.976Z,7.60
2018-07-25T03:57:46.514Z,8.43
2018-07-25T04:00:16.889Z,7.23
2018-07-25T04:02:47.332Z,7.83
2018-07-25T04:05:18.449Z,7.93
2018-07-25T04:07:49.000Z,7.33
2018-07-25T04:10:19.495Z,9.47
2018-07-25T04:12:49.886Z,7.40
2018-07-25T04:15:20.370Z,8.73
2018-07-25T04:17:51.138Z,8.50
2018-07-25T04:20:21.761Z,7.30
2018-07-25T04:22:52.357Z,7.23
2018-07-25T04:25:22.941Z,7.07
2018-07-25T04:27:53.516Z,12.17
2018-07-25T04:30:23.900Z,9.30
2018-07-25T04:32:54.434Z,7.40
2018-07-25T04:35:24.778Z,6.53
2018-07-25T04:37:56.086Z,7.50
2018-07-25T04:40:26.657Z,7.27
2018-07-25T04:42:56.976Z,6.60
2018-07-25T04:45:27.414Z,7.77
2018-07-25T04:47:57.910Z,6.40
2018-07-25T04:50:28.364Z,7.53
2018-07-25T04:53:00.193Z,6.97
2018-07-25T04:55:30.707Z,7.13
2018-07-25T04:58:01.035Z,6.83
2018-07-25T05:00:31.686Z,7.03
2018-07-25T05:03:01.993Z,8.93
2018-07-25T05:05:32.644Z,8.00
2018-07-25T05:08:03.058Z,6.60
2018-07-25T05:10:33.719Z,7.23
2018-07-25T05:13:04.296Z,6.77
2018-07-25T05:15:34.659Z,7.87
2018-07-25T05:18:04.968Z,6.93
2018-07-25T05:20:36.237Z,7.83
2018-07-25T05:23:06.648Z,6.50
2018-07-25T05:25:37.062Z,6.50
2018-07-25T05:28:07.368Z,8.03
2018-07-25T05:30:37.933Z,8.70
2018-07-25T05:33:08.381Z,5.73
2018-07-25T05:35:38.757Z,6.93
2018-07-25T05:38:09.244Z,5.23
2018-07-25T05:40:39.578Z,5.70
2018-07-25T05:43:10.067Z,5.43
2018-07-25T05:45:40.448Z,8.33
2018-07-25T05:48:10.817Z,7.60
2018-07-25T05:50:41.353Z,6.63
2018-07-25T05:53:11.654Z,9.37
2018-07-25T05:55:42.053Z,6.93
2018-07-25T05:58:12.477Z,6.43
2018-07-25T06:00:42.857Z,8.63
2018-07-25T06:03:13.397Z,6.73
2018-07-25T06:05:43.752Z,6.30
2018-07-25T06:08:14.094Z,7.73
2018-07-25T06:10:44.500Z,8.80
2018-07-25T06:13:14.964Z,7.67
2018-07-25T06:15:45.318Z,8.47
2018-07-25T06:18:15.470Z,8.33
2018-07-25T06:20:46.724Z,8.40
2018-07-25T06:23:17.055Z,7.37
2018-07-25T06:25:47.502Z,7.03
2018-07-25T06:28:17.792Z,10.17
2018-07-25T06:30:48.120Z,5.30
2018-07-25T06:33:18.380Z,5.83
2018-07-25T06:35:48.756Z,5.77
2018-07-25T06:38:19.111Z,5.40
2018-07-25T06:40:49.409Z,8.90
2018-07-25T06:43:20.149Z,12.17
2018-07-25T06:45:50.615Z,6.43
2018-07-25T06:48:20.993Z,6.57
2018-07-25T06:50:52.517Z,8.30
2018-07-25T06:53:22.908Z,10.80
2018-07-25T06:55:53.347Z,9.63
2018-07-25T06:58:23.925Z,7.47
2018-07-25T07:00:54.567Z,10.40
2018-07-25T07:03:24.920Z,9.53
2018-07-25T07:05:55.601Z,7.97
2018-07-25T07:08:26.097Z,10.07
2018-07-25T07:13:41.038Z,6.87
2018-07-25T07:16:11.475Z,7.90
2018-07-25T07:18:41.907Z,7.97
2018-07-25T07:21:12.522Z,8.30
2018-07-25T07:23:42.861Z,8.40
2018-07-25T07:26:13.502Z,16.90
2018-07-25T07:28:43.795Z,12.17
2018-07-25T07:31:14.353Z,9.20
2018-07-25T07:33:45.124Z,8.77
2018-07-25T07:36:15.595Z,9.60
2018-07-25T07:38:46.145Z,7.27
2018-07-25T07:41:16.489Z,10.33
2018-07-25T07:43:46.890Z,7.57
2018-07-25T07:46:18.359Z,8.73
2018-07-25T07:48:48.853Z,10.97
2018-07-25T07:51:19.424Z,8.00
2018-07-25T07:53:49.892Z,10.57
2018-07-25T07:56:20.340Z,9.67
2018-07-25T07:58:51.055Z,8.60
2018-07-25T08:01:21.509Z,8.60
2018-07-25T08:03:52.121Z,11.70
2018-07-25T08:06:22.543Z,13.27
2018-07-25T08:08:52.954Z,9.90
2018-07-25T08:11:23.507Z,11.70
2018-07-25T08:13:54.054Z,13.33
2018-07-25T08:16:24.373Z,11.87
2018-07-25T08:18:54.689Z,9.97
2018-07-25T08:21:25.180Z,11.20
2018-07-25T08:23:55.770Z,11.53
2018-07-25T08:26:26.149Z,10.87
2018-07-25T08:28:56.452Z,21.17
2018-07-25T08:31:26.881Z,8.73
2018-07-25T08:33:57.442Z,12.90
2018-07-25T08:36:29.301Z,9.07
2018-07-25T08:38:59.829Z,10.43
2018-07-25T08:41:30.245Z,12.47
2018-07-25T08:44:00.679Z,13.13
2018-07-25T08:46:31.172Z,22.23
2018-07-25T08:49:01.685Z,13.07
2018-07-25T08:51:32.133Z,9.73
2018-07-25T08:54:02.539Z,9.40
2018-07-25T08:56:32.897Z,9.50
2018-07-25T08:59:03.306Z,8.93
2018-07-25T09:01:33.748Z,12.27
2018-07-25T09:04:04.073Z,8.90
2018-07-25T09:06:34.862Z,10.00
2018-07-25T09:09:07.574Z,9.83
2018-07-25T09:11:37.955Z,12.60
2018-07-25T09:14:08.389Z,9.27
2018-07-25T09:16:39.780Z,10.37
2018-07-25T09:19:10.154Z,11.20
2018-07-25T09:21:40.537Z,17.80
2018-07-25T09:24:11.040Z,11.20
2018-07-25T09:26:41.885Z,10.87
2018-07-25T09:29:12.510Z,14.77
2018-07-25T09:31:42.949Z,11.07
2018-07-25T09:34:13.509Z,13.40
2018-07-25T09:36:43.898Z,13.90
2018-07-25T09:39:14.337Z,18.93
2018-07-25T09:41:44.965Z,12.07
2018-07-25T09:44:15.379Z,11.70
2018-07-25T09:46:45.741Z,17.50
2018-07-25T09:49:16.137Z,19.27
2018-07-25T09:51:46.658Z,12.27
2018-07-25T09:54:17.223Z,11.00
2018-07-25T09:56:47.625Z,8.40
2018-07-25T09:59:18.235Z,9.57
2018-07-25T10:01:49.053Z,8.30
2018-07-25T10:04:19.505Z,8.43
2018-07-25T10:06:50.946Z,10.03
2018-07-25T10:09:21.328Z,9.73
2018-07-25T10:11:51.739Z,11.43
2018-07-25T10:14:22.445Z,10.83
2018-07-25T10:16:52.848Z,9.70
2018-07-25T10:19:23.324Z,8.97
2018-07-25T10:21:53.666Z,9.20
2018-07-25T10:24:24.057Z,9.33
2018-07-25T10:26:54.722Z,11.07
2018-07-25T10:29:25.295Z,10.10
2018-07-25T10:31:57.793Z,9.73
2018-07-25T10:34:28.324Z,9.37
2018-07-25T10:36:58.885Z,8.17
2018-07-25T10:39:29.249Z,8.10
2018-07-25T10:41:59.910Z,11.87
2018-07-25T10:44:30.559Z,6.93
2018-07-25T10:47:00.967Z,7.57
2018-07-25T10:49:31.669Z,5.63
2018-07-25T10:52:02.238Z,6.60
2018-07-25T10:54:32.935Z,8.43
2018-07-25T10:57:06.686Z,5.87
2018-07-25T10:59:37.105Z,5.40
2018-07-25T11:02:07.713Z,6.17
2018-07-25T11:04:38.076Z,5.97
2018-07-25T11:07:08.474Z,7.10
2018-07-25T11:09:38.920Z,4.90
2018-07-25T11:12:09.385Z,8.20
2018-07-25T11:14:39.562Z,8.40
2018-07-25T11:17:09.736Z,7.27
2018-07-25T11:19:39.982Z,6.03
2018-07-25T11:22:10.142Z,8.90
2018-07-25T11:24:40.339Z,5.30
2018-07-25T11:27:10.501Z,4.60
2018-07-25T11:29:40.799Z,8.57
2018-07-25T11:32:11.281Z,6.27
2018-07-25T11:34:41.499Z,13.23
2018-07-25T11:37:11.746Z,7.27
2018-07-25T11:39:42.045Z,11.03
2018-07-25T11:42:12.205Z,12.87
2018-07-25T11:44:42.437Z,7.73
2018-07-25T11:47:12.635Z,15.40
2018-07-25T11:49:42.870Z,11.03
2018-07-25T11:52:13.152Z,11.20
2018-07-25T11:54:43.611Z,6.97
2018-07-25T11:57:13.847Z,9.13
2018-07-25T11:59:44.021Z,12.37
2018-07-25T12:02:14.255Z,9.33
2018-07-25T12:04:44.403Z,12.13
2018-07-25T12:07:14.569Z,10.77
2018-07-25T12:09:45.154Z,12.10
2018-07-25T12:12:15.348Z,11.17
2018-07-25T12:14:45.554Z,8.87
2018-07-25T12:17:15.678Z,8.10
2018-07-25T12:19:45.931Z,8.97
2018-07-25T12:22:16.080Z,9.33
2018-07-25T12:24:46.286Z,12.07
2018-07-25T12:27:16.439Z,11.07
2018-07-25T12:29:46.771Z,17.37
2018-07-25T12:32:17.025Z,15.87
2018-07-25T12:34:47.277Z,11.87
2018-07-25T12:37:18.203Z,13.80
2018-07-25T12:39:48.460Z,11.40
2018-07-25T12:42:18.601Z,12.63
2018-07-25T12:44:49.210Z,14.63
2018-07-25T12:47:19.375Z,11.57
2018-07-25T12:49:49.845Z,10.80
2018-07-25T12:52:19.927Z,15.97
2018-07-25T12:54:50.139Z,14.90
2018-07-25T12:57:20.309Z,15.53
2018-07-25T12:59:50.682Z,13.87
2018-07-25T13:02:20.893Z,14.10
2018-07-25T13:04:51.176Z,10.83
2018-07-25T13:07:21.387Z,12.27
2018-07-25T13:09:51.604Z,10.73
2018-07-25T13:12:21.679Z,16.33
2018-07-25T13:14:51.841Z,12.47
2018-07-25T13:17:22.174Z,14.67
2018-07-25T13:19:52.307Z,12.40
2018-07-25T13:22:22.709Z,10.37
2018-07-25T13:24:53.246Z,11.37
2018-07-25T13:27:23.695Z,12.17
2018-07-25T13:29:53.830Z,10.87
2018-07-25T13:32:24.125Z,10.63
2018-07-25T13:34:54.261Z,8.93
2018-07-25T13:37:24.611Z,9.43
2018-07-25T13:39:54.821Z,13.00
2018-07-25T13:42:25.135Z,10.53
2018-07-25T13:44:55.684Z,20.07
2018-07-25T13:47:26.093Z,13.47
2018-07-25T13:49:56.521Z,10.13
2018-07-25T13:52:26.652Z,13.00
2018-07-25T13:54:56.970Z,9.20
2018-07-25T13:57:27.296Z,10.67
2018-07-25T13:59:57.682Z,10.73
2018-07-25T14:02:48.573Z,19.77
2018-07-25T14:05:18.975Z,10.90
2018-07-25T14:07:50.146Z,11.57
2018-07-25T14:10:20.656Z,11.73
2018-07-25T14:12:51.100Z,11.67
2018-07-25T14:15:21.827Z,13.57
2018-07-25T14:17:52.489Z,13.87
2018-07-25T14:20:23.631Z,9.50
2018-07-25T14:22:53.978Z,9.17
2018-07-25T14:25:24.513Z,10.23
2018-07-25T14:27:55.048Z,15.70
2018-07-25T14:30:25.722Z,10.17
2018-07-25T14:32:56.310Z,8.13
2018-07-25T14:35:26.653Z,12.20
2018-07-25T14:37:57.273Z,12.70
2018-07-25T14:40:27.937Z,9.87
2018-07-25T14:42:59.244Z,8.33
2018-07-25T14:45:29.733Z,12.53
2018-07-25T14:48:00.306Z,10.53
2018-07-25T14:50:30.740Z,10.93
2018-07-25T14:53:01.096Z,10.93
2018-07-25T14:55:31.569Z,10.60
2018-07-25T14:58:02.178Z,10.37
2018-07-25T15:00:32.816Z,9.70
2018-07-25T15:03:03.240Z,10.60
2018-07-25T15:05:33.651Z,10.80
2018-07-25T15:08:04.640Z,9.97
2018-07-25T15:10:35.252Z,11.27
2018-07-25T15:13:05.876Z,11.13
2018-07-25T15:15:36.183Z,11.67
2018-07-25T15:18:06.829Z,12.60
2018-07-25T15:20:37.274Z,10.93
2018-07-25T15:23:07.754Z,11.47
2018-07-25T15:25:38.349Z,10.00
2018-07-25T15:28:08.824Z,10.37
2018-07-25T15:30:39.135Z,10.70
2018-07-25T15:33:09.529Z,12.20
2018-07-25T15:35:40.093Z,10.43
2018-07-25T15:38:10.462Z,10.87
2018-07-25T15:40:40.862Z,11.60
2018-07-25T15:43:11.252Z,11.17
2018-07-25T15:45:41.844Z,11.27
2018-07-25T15:48:12.192Z,11.73
2018-07-25T15:50:42.693Z,13.37
2018-07-25T15:53:13.269Z,17.80
2018-07-25T15:55:43.625Z,14.23
2018-07-25T15:58:13.487Z,12.43
2018-07-25T16:00:43.949Z,14.80
2018-07-25T16:03:14.519Z,9.73
2018-07-25T16:05:45.080Z,10.33
2018-07-25T16:08:15.476Z,9.47
2018-07-25T16:10:45.997Z,10.37
2018-07-25T16:13:16.437Z,20.30
2018-07-25T16:15:46.750Z,12.93
2018-07-25T16:18:17.310Z,13.87
2018-07-25T16:20:47.659Z,10.80
2018-07-25T16:23:18.128Z,11.33
2018-07-25T16:25:48.881Z,12.03
2018-07-25T16:28:19.289Z,11.03
2018-07-25T16:30:49.949Z,19.50
2018-07-25T16:33:20.273Z,11.30
2018-07-25T16:35:50.656Z,14.60
2018-07-25T16:38:21.097Z,13.47
2018-07-25T16:40:51.605Z,10.90
2018-07-25T16:43:22.056Z,10.63
2018-07-25T16:45:52.658Z,12.47
2018-07-25T16:48:23.206Z,11.37
2018-07-25T16:50:53.555Z,11.87
2018-07-25T16:53:24.587Z,11.77
2018-07-25T16:55:55.130Z,10.50
2018-07-25T16:58:25.438Z,11.37
2018-07-25T17:00:56.182Z,10.73
2018-07-25T17:03:26.539Z,11.70
2018-07-25T17:05:57.178Z,10.50
2018-07-25T17:08:27.897Z,8.60
2018-07-25T17:10:58.254Z,9.10
2018-07-25T17:13:28.877Z,9.97
2018-07-25T17:15:59.445Z,8.00
2018-07-25T17:18:29.878Z,7.30
2018-07-25T17:21:00.650Z,5.83
2018-07-25T17:23:30.945Z,5.23
2018-07-25T17:26:01.348Z,5.97
2018-07-25T17:28:31.686Z,5.30
2018-07-25T17:31:02.288Z,6.10
2018-07-25T17:33:32.961Z,6.23
2018-07-25T17:36:03.467Z,5.63
2018-07-25T17:38:33.809Z,6.00
2018-07-25T17:41:04.177Z,7.10
2018-07-25T17:43:34.760Z,5.20
2018-07-25T17:46:05.188Z,6.17
2018-07-25T17:48:35.655Z,8.30
2018-07-25T17:51:06.048Z,9.67
2018-07-25T17:53:36.603Z,7.27
2018-07-25T17:56:07.333Z,7.73
2018-07-25T17:58:37.934Z,7.63
2018-07-25T18:01:08.510Z,5.80
2018-07-25T18:03:38.933Z,6.07
2018-07-25T18:06:10.003Z,7.80
2018-07-25T18:08:40.619Z,6.53
2018-07-25T18:11:10.926Z,7.30
2018-07-25T18:14:44.356Z,8.93
2018-07-25T18:17:15.880Z,6.90
2018-07-25T18:19:46.357Z,9.73
2018-07-25T18:22:16.869Z,7.57
2018-07-25T18:24:47.450Z,7.13
2018-07-25T18:27:17.902Z,8.33
2018-07-25T18:29:48.385Z,8.73
2018-07-25T18:32:18.884Z,10.17
2018-07-25T18:34:49.344Z,8.00
2018-07-25T18:37:20.035Z,8.50
2018-07-25T18:39:50.443Z,7.90
2018-07-25T18:42:21.009Z,7.70
2018-07-25T18:44:51.500Z,9.87
2018-07-25T18:47:21.990Z,9.80
2018-07-25T18:49:53.206Z,10.97
2018-07-25T18:52:23.916Z,9.50
2018-07-25T18:54:54.421Z,8.30
2018-07-25T18:57:24.735Z,8.73
2018-07-25T18:59:55.202Z,10.00
2018-07-25T19:02:25.578Z,8.17
2018-07-25T19:04:56.235Z,8.77
2018-07-25T19:07:26.836Z,9.40
2018-07-25T19:09:57.233Z,10.60
2018-07-25T19:12:27.662Z,10.10
2018-07-25T19:15:03.181Z,8.97
2018-07-25T19:17:34.702Z,9.70
2018-07-25T19:20:05.202Z,8.37
2018-07-25T19:22:35.789Z,8.83
2018-07-25T19:25:06.137Z,8.87
2018-07-25T19:27:36.787Z,10.67
2018-07-25T19:30:07.429Z,8.77
2018-07-25T19:32:38.606Z,9.40
2018-07-25T19:35:09.088Z,10.03
2018-07-25T19:37:39.715Z,11.80
2018-07-25T19:40:10.141Z,13.47
2018-07-25T19:42:40.498Z,9.43
2018-07-25T19:45:11.296Z,9.27
2018-07-25T19:47:41.683Z,9.13
2018-07-25T19:50:12.035Z,9.87
2018-07-25T19:52:42.436Z,9.93
2018-07-25T19:55:12.710Z,10.07
2018-07-25T19:57:43.012Z,13.20
2018-07-25T20:00:16.384Z,10.53
2018-07-25T20:02:43.871Z,11.03
2018-07-25T20:05:14.895Z,9.63
2018-07-25T20:07:45.336Z,13.50
2018-07-25T20:10:15.627Z,10.17
2018-07-25T20:12:46.019Z,9.93
2018-07-25T20:15:21.587Z,10.33
2018-07-25T20:17:52.027Z,9.33
2018-07-25T20:20:22.759Z,8.97
2018-07-25T20:22:53.094Z,12.83
2018-07-25T20:25:23.430Z,8.60
2018-07-25T20:27:54.546Z,10.27
2018-07-25T20:30:26.398Z,7.80
2018-07-25T20:32:56.741Z,9.27
2018-07-25T20:35:27.145Z,8.40
2018-07-25T20:37:57.646Z,10.60
2018-07-25T20:40:27.939Z,9.67
2018-07-25T20:42:58.622Z,9.47
2018-07-25T20:45:29.006Z,9.07
2018-07-25T20:47:59.764Z,9.93
2018-07-25T20:50:30.185Z,10.80
2018-07-25T20:53:01.346Z,9.13
2018-07-25T20:55:31.686Z,8.67
2018-07-25T20:58:02.139Z,8.60
2018-07-25T21:00:35.163Z,10.83
2018-07-25T21:03:06.931Z,13.57
2018-07-25T21:05:37.338Z,16.20
2018-07-25T21:08:07.846Z,12.27
2018-07-25T21:10:38.254Z,10.17
2018-07-25T21:13:08.738Z,11.07
2018-07-25T21:15:39.026Z,12.07
2018-07-25T21:18:09.854Z,9.93
2018-07-25T21:20:41.008Z,7.33
2018-07-25T21:23:11.373Z,6.67
2018-07-25T21:25:41.772Z,7.00
2018-07-25T21:28:12.171Z,6.87
2018-07-25T21:30:42.622Z,6.73
2018-07-25T21:33:13.172Z,7.70
2018-07-25T21:35:43.704Z,7.60
2018-07-25T21:38:15.392Z,9.20
2018-07-25T21:40:45.915Z,6.97
2018-07-25T21:43:16.318Z,6.07
2018-07-25T21:45:46.767Z,8.27
2018-07-25T21:48:17.212Z,7.00
2018-07-25T21:50:47.605Z,7.07
2018-07-25T21:53:18.756Z,8.10
2018-07-25T21:55:49.133Z,6.70
2018-07-25T21:58:19.424Z,9.13
2018-07-25T22:00:54.887Z,6.33
2018-07-25T22:03:25.346Z,7.03
2018-07-25T22:05:56.058Z,7.07
2018-07-25T22:08:26.614Z,8.57
2018-07-25T22:10:57.022Z,6.70
2018-07-25T22:13:27.446Z,6.40
2018-07-25T22:15:57.791Z,6.87
2018-07-25T22:18:28.373Z,6.87
2018-07-25T22:20:58.727Z,10.43
2018-07-25T22:23:29.320Z,10.47
2018-07-25T22:25:59.779Z,7.53
2018-07-25T22:28:30.156Z,6.97
2018-07-25T22:31:00.574Z,7.20
2018-07-25T22:33:30.915Z,6.13
2018-07-25T22:36:01.453Z,6.17
2018-07-25T22:38:31.748Z,6.27
2018-07-25T22:41:02.142Z,6.90
2018-07-25T22:43:32.558Z,6.47
2018-07-25T22:46:04.048Z,5.93
2018-07-25T22:48:34.451Z,5.63
2018-07-25T22:51:04.849Z,6.97
2018-07-25T22:53:35.323Z,5.50
2018-07-25T22:56:05.746Z,5.77
2018-07-25T22:58:36.164Z,11.43
2018-07-25T23:01:06.645Z,5.90
2018-07-25T23:03:37.068Z,7.53
2018-07-25T23:06:07.717Z,7.93
2018-07-25T23:08:38.233Z,7.13
2018-07-25T23:11:09.059Z,7.20
2018-07-25T23:13:43.344Z,6.03
2018-07-25T23:16:13.713Z,6.97
2018-07-25T23:18:43.989Z,6.23
2018-07-25T23:21:14.492Z,6.33
2018-07-25T23:23:44.965Z,7.03
2018-07-25T23:26:15.567Z,6.80
2018-07-25T23:28:46.100Z,6.77
2018-07-25T23:31:16.477Z,6.57
2018-07-25T23:33:46.685Z,8.63
2018-07-25T23:36:17.011Z,6.13
2018-07-25T23:38:49.120Z,9.13
2018-07-25T23:41:19.740Z,7.43
2018-07-25T23:43:50.261Z,6.97
2018-07-25T23:46:20.654Z,6.27
2018-07-25T23:48:50.936Z,6.30
2018-07-25T23:51:21.410Z,7.40
2018-07-25T23:53:51.645Z,6.67
2018-07-25T23:56:21.939Z,7.30
2018-07-25T23:58:52.441Z,6.80
